sensor_id;sensor_type;location;lat;lon;timestamp;temperature;humidity
7784;DHT22;19359;51.402;6.778;2024-02-14T00:00:45;8.60;1.00
7784;DHT22;19359;51.402;6.778;2024-02-14T00:03:12;8.60;1.00
7784;DHT22;19359;51.402;6.778;2024-02-14T00:05:38;8.60;1.00
7784;DHT22;19359;51.402;6.778;2024-02-14T00:08:06;8.50;1.00
7784;DHT22;19359;51.402;6.778;2024-02-14T00:10:33;8.50;1.00
7784;DHT22;19359;51.402;6.778;2024-02-14T00:13:00;8.40;1.00
7784;DHT22;19359;51.402;6.778;2024-02-14T00:15:29;8.30;1.00
7784;DHT22;19359;51.402;6.778;2024-02-14T00:17:55;8.20;1.00
7784;DHT22;19359;51.402;6.778;2024-02-14T00:20:22;8.20;23.50
7784;DHT22;19359;51.402;6.778;2024-02-14T00:22:49;8.10;49.60
7784;DHT22;19359;51.402;6.778;2024-02-14T00:25:16;8.10;99.90
7784;DHT22;19359;51.402;6.778;2024-02-14T00:27:43;8.10;99.90
7784;DHT22;19359;51.402;6.778;2024-02-14T00:30:10;8.00;99.90
7784;DHT22;19359;51.402;6.778;2024-02-14T00:32:38;8.00;99.90
7784;DHT22;19359;51.402;6.778;2024-02-14T00:35:05;8.00;99.90
7784;DHT22;19359;51.402;6.778;2024-02-14T00:37:33;8.00;99.90
7784;DHT22;19359;51.402;6.778;2024-02-14T00:40:00;8.00;99.90
7784;DHT22;19359;51.402;6.778;2024-02-14T00:42:27;8.00;99.90
7784;DHT22;19359;51.402;6.778;2024-02-14T00:44:53;8.00;99.90
7784;DHT22;19359;51.402;6.778;2024-02-14T00:47:20;8.00;1.00
7784;DHT22;19359;51.402;6.778;2024-02-14T00:49:49;8.00;1.00
7784;DHT22;19359;51.402;6.778;2024-02-14T00:52:15;8.00;1.00
7784;DHT22;19359;51.402;6.778;2024-02-14T00:54:42;8.00;1.00
7784;DHT22;19359;51.402;6.778;2024-02-14T00:57:09;8.00;1.00
7784;DHT22;19359;51.402;6.778;2024-02-14T00:59:37;8.00;75.20
7784;DHT22;19359;51.402;6.778;2024-02-14T01:02:04;8.00;99.90
7784;DHT22;19359;51.402;6.778;2024-02-14T01:04:31;8.00;1.00
7784;DHT22;19359;51.402;6.778;2024-02-14T01:06:59;7.90;1.00
7784;DHT22;19359;51.402;6.778;2024-02-14T01:09:25;7.90;1.00
7784;DHT22;19359;51.402;6.778;2024-02-14T01:11:52;7.90;99.90
7784;DHT22;19359;51.402;6.778;2024-02-14T01:14:19;7.90;99.90
7784;DHT22;19359;51.402;6.778;2024-02-14T01:16:47;7.90;99.90
7784;DHT22;19359;51.402;6.778;2024-02-14T01:19:14;7.90;99.90
7784;DHT22;19359;51.402;6.778;2024-02-14T01:21:40;8.00;99.90
7784;DHT22;19359;51.402;6.778;2024-02-14T01:24:08;8.00;99.90
7784;DHT22;19359;51.402;6.778;2024-02-14T01:26:35;7.90;99.90
7784;DHT22;19359;51.402;6.778;2024-02-14T01:29:02;8.00;25.80
7784;DHT22;19359;51.402;6.778;2024-02-14T01:31:28;7.90;1.00
7784;DHT22;19359;51.402;6.778;2024-02-14T01:33:56;8.00;1.00
7784;DHT22;19359;51.402;6.778;2024-02-14T01:36:22;8.00;1.00
7784;DHT22;19359;51.402;6.778;2024-02-14T01:38:49;8.10;1.00
7784;DHT22;19359;51.402;6.778;2024-02-14T01:41:17;8.10;99.90
7784;DHT22;19359;51.402;6.778;2024-02-14T01:43:44;8.10;1.00
7784;DHT22;19359;51.402;6.778;2024-02-14T01:46:11;8.20;1.00
7784;DHT22;19359;51.402;6.778;2024-02-14T01:48:39;8.20;1.00
7784;DHT22;19359;51.402;6.778;2024-02-14T01:51:08;8.20;1.00
7784;DHT22;19359;51.402;6.778;2024-02-14T01:53:37;8.20;1.00
7784;DHT22;19359;51.402;6.778;2024-02-14T01:56:05;8.30;1.00
7784;DHT22;19359;51.402;6.778;2024-02-14T01:58:34;8.30;1.00
7784;DHT22;19359;51.402;6.778;2024-02-14T02:01:01;8.30;1.00
7784;DHT22;19359;51.402;6.778;2024-02-14T02:03:29;8.30;99.90
7784;DHT22;19359;51.402;6.778;2024-02-14T02:05:58;8.40;99.90
7784;DHT22;19359;51.402;6.778;2024-02-14T02:08:25;8.40;99.90
7784;DHT22;19359;51.402;6.778;2024-02-14T02:10:52;8.40;99.90
7784;DHT22;19359;51.402;6.778;2024-02-14T02:13:19;8.50;99.90
7784;DHT22;19359;51.402;6.778;2024-02-14T02:15:47;8.50;99.90
7784;DHT22;19359;51.402;6.778;2024-02-14T02:18:14;8.50;99.90
7784;DHT22;19359;51.402;6.778;2024-02-14T02:20:41;8.60;99.90
7784;DHT22;19359;51.402;6.778;2024-02-14T02:23:10;8.60;99.90
7784;DHT22;19359;51.402;6.778;2024-02-14T02:25:40;8.60;99.90
7784;DHT22;19359;51.402;6.778;2024-02-14T02:28:07;8.60;99.90
7784;DHT22;19359;51.402;6.778;2024-02-14T02:30:34;8.70;99.90
7784;DHT22;19359;51.402;6.778;2024-02-14T02:33:02;8.70;99.90
7784;DHT22;19359;51.402;6.778;2024-02-14T02:35:29;8.70;99.90
7784;DHT22;19359;51.402;6.778;2024-02-14T02:37:55;8.80;99.90
7784;DHT22;19359;51.402;6.778;2024-02-14T02:40:24;8.80;99.90
7784;DHT22;19359;51.402;6.778;2024-02-14T02:42:51;8.80;99.90
7784;DHT22;19359;51.402;6.778;2024-02-14T02:45:18;8.80;99.90
7784;DHT22;19359;51.402;6.778;2024-02-14T02:47:44;8.90;99.90
7784;DHT22;19359;51.402;6.778;2024-02-14T02:50:12;8.90;99.90
7784;DHT22;19359;51.402;6.778;2024-02-14T02:52:38;8.90;99.90
7784;DHT22;19359;51.402;6.778;2024-02-14T02:55:06;8.90;99.90
7784;DHT22;19359;51.402;6.778;2024-02-14T02:57:34;9.00;99.90
7784;DHT22;19359;51.402;6.778;2024-02-14T03:00:03;9.00;99.90
7784;DHT22;19359;51.402;6.778;2024-02-14T03:02:31;9.00;99.90
7784;DHT22;19359;51.402;6.778;2024-02-14T03:04:57;9.00;99.90
7784;DHT22;19359;51.402;6.778;2024-02-14T03:07:24;9.00;99.90
7784;DHT22;19359;51.402;6.778;2024-02-14T03:09:51;9.10;99.90
7784;DHT22;19359;51.402;6.778;2024-02-14T03:12:18;9.10;99.90
7784;DHT22;19359;51.402;6.778;2024-02-14T03:14:48;9.10;1.00
7784;DHT22;19359;51.402;6.778;2024-02-14T03:17:15;9.10;99.90
7784;DHT22;19359;51.402;6.778;2024-02-14T03:19:42;9.20;99.90
7784;DHT22;19359;51.402;6.778;2024-02-14T03:22:09;9.20;99.90
7784;DHT22;19359;51.402;6.778;2024-02-14T03:24:35;9.20;99.90
7784;DHT22;19359;51.402;6.778;2024-02-14T03:27:03;9.30;99.90
7784;DHT22;19359;51.402;6.778;2024-02-14T03:29:31;9.30;99.90
7784;DHT22;19359;51.402;6.778;2024-02-14T03:31:59;9.30;99.90
7784;DHT22;19359;51.402;6.778;2024-02-14T03:34:30;8.20;99.90
7784;DHT22;19359;51.402;6.778;2024-02-14T03:36:59;9.30;99.90
7784;DHT22;19359;51.402;6.778;2024-02-14T03:39:26;9.30;1.00
7784;DHT22;19359;51.402;6.778;2024-02-14T03:41:53;9.30;1.00
7784;DHT22;19359;51.402;6.778;2024-02-14T03:44:21;9.30;1.00
7784;DHT22;19359;51.402;6.778;2024-02-14T03:46:48;9.30;1.00
7784;DHT22;19359;51.402;6.778;2024-02-14T03:49:16;9.30;1.00
7784;DHT22;19359;51.402;6.778;2024-02-14T03:51:43;9.30;1.00
7784;DHT22;19359;51.402;6.778;2024-02-14T03:54:10;9.20;33.00
7784;DHT22;19359;51.402;6.778;2024-02-14T03:56:37;9.30;1.00
7784;DHT22;19359;51.402;6.778;2024-02-14T03:59:04;9.30;1.00
7784;DHT22;19359;51.402;6.778;2024-02-14T04:01:33;9.30;1.00
7784;DHT22;19359;51.402;6.778;2024-02-14T04:03:59;9.20;1.00
7784;DHT22;19359;51.402;6.778;2024-02-14T04:06:27;9.30;1.00
7784;DHT22;19359;51.402;6.778;2024-02-14T04:08:57;9.30;1.00
7784;DHT22;19359;51.402;6.778;2024-02-14T04:11:24;9.40;1.00
7784;DHT22;19359;51.402;6.778;2024-02-14T04:13:51;9.40;1.00
7784;DHT22;19359;51.402;6.778;2024-02-14T04:16:19;9.40;1.00
7784;DHT22;19359;51.402;6.778;2024-02-14T04:18:46;9.40;1.00
7784;DHT22;19359;51.402;6.778;2024-02-14T04:21:13;9.40;1.00
7784;DHT22;19359;51.402;6.778;2024-02-14T04:23:41;9.50;1.00
7784;DHT22;19359;51.402;6.778;2024-02-14T04:26:08;9.50;1.00
7784;DHT22;19359;51.402;6.778;2024-02-14T04:28:35;9.50;1.00
7784;DHT22;19359;51.402;6.778;2024-02-14T04:31:01;9.50;1.00
7784;DHT22;19359;51.402;6.778;2024-02-14T04:33:28;9.50;1.00
7784;DHT22;19359;51.402;6.778;2024-02-14T04:35:56;9.60;1.00
7784;DHT22;19359;51.402;6.778;2024-02-14T04:38:22;9.60;1.00
7784;DHT22;19359;51.402;6.778;2024-02-14T04:40:50;9.60;1.00
7784;DHT22;19359;51.402;6.778;2024-02-14T04:43:17;9.50;1.00
7784;DHT22;19359;51.402;6.778;2024-02-14T04:45:45;9.60;1.00
7784;DHT22;19359;51.402;6.778;2024-02-14T04:48:12;9.60;1.00
7784;DHT22;19359;51.402;6.778;2024-02-14T04:50:38;9.60;1.00
7784;DHT22;19359;51.402;6.778;2024-02-14T04:53:05;9.60;1.00
7784;DHT22;19359;51.402;6.778;2024-02-14T04:55:32;9.60;1.00
7784;DHT22;19359;51.402;6.778;2024-02-14T04:58:01;9.60;1.00
7784;DHT22;19359;51.402;6.778;2024-02-14T05:00:27;9.70;1.00
7784;DHT22;19359;51.402;6.778;2024-02-14T05:02:54;9.70;99.90
7784;DHT22;19359;51.402;6.778;2024-02-14T05:05:20;9.70;99.90
7784;DHT22;19359;51.402;6.778;2024-02-14T05:07:47;9.60;99.90
7784;DHT22;19359;51.402;6.778;2024-02-14T05:10:14;9.60;99.90
7784;DHT22;19359;51.402;6.778;2024-02-14T05:12:40;9.60;99.90
7784;DHT22;19359;51.402;6.778;2024-02-14T05:15:10;9.70;99.90
7784;DHT22;19359;51.402;6.778;2024-02-14T05:17:37;9.70;99.90
7784;DHT22;19359;51.402;6.778;2024-02-14T05:20:05;9.70;99.90
7784;DHT22;19359;51.402;6.778;2024-02-14T05:22:35;9.60;1.00
7784;DHT22;19359;51.402;6.778;2024-02-14T05:25:02;9.60;1.00
7784;DHT22;19359;51.402;6.778;2024-02-14T05:27:29;9.50;76.30
7784;DHT22;19359;51.402;6.778;2024-02-14T05:29:56;9.50;99.90
7784;DHT22;19359;51.402;6.778;2024-02-14T05:32:25;9.50;99.90
7784;DHT22;19359;51.402;6.778;2024-02-14T05:34:51;9.50;99.90
7784;DHT22;19359;51.402;6.778;2024-02-14T05:37:19;9.50;99.90
7784;DHT22;19359;51.402;6.778;2024-02-14T05:39:46;9.50;99.90
7784;DHT22;19359;51.402;6.778;2024-02-14T05:42:13;9.50;65.20
7784;DHT22;19359;51.402;6.778;2024-02-14T05:44:41;9.50;78.60
7784;DHT22;19359;51.402;6.778;2024-02-14T05:47:08;9.60;19.20
7784;DHT22;19359;51.402;6.778;2024-02-14T05:49:38;9.60;99.90
7784;DHT22;19359;51.402;6.778;2024-02-14T05:52:05;9.60;99.90
7784;DHT22;19359;51.402;6.778;2024-02-14T05:54:32;9.60;99.90
7784;DHT22;19359;51.402;6.778;2024-02-14T05:56:59;9.60;99.90
7784;DHT22;19359;51.402;6.778;2024-02-14T05:59:26;9.60;1.00
7784;DHT22;19359;51.402;6.778;2024-02-14T06:01:53;9.60;1.00
7784;DHT22;19359;51.402;6.778;2024-02-14T06:04:20;9.60;1.00
7784;DHT22;19359;51.402;6.778;2024-02-14T06:06:48;9.60;23.10
7784;DHT22;19359;51.402;6.778;2024-02-14T06:09:14;9.60;6.30
7784;DHT22;19359;51.402;6.778;2024-02-14T06:11:41;9.60;99.90
7784;DHT22;19359;51.402;6.778;2024-02-14T06:14:09;9.60;99.90
7784;DHT22;19359;51.402;6.778;2024-02-14T06:16:36;9.60;99.90
7784;DHT22;19359;51.402;6.778;2024-02-14T06:19:03;9.60;1.00
7784;DHT22;19359;51.402;6.778;2024-02-14T06:21:31;9.60;1.00
7784;DHT22;19359;51.402;6.778;2024-02-14T06:24:00;9.50;1.00
7784;DHT22;19359;51.402;6.778;2024-02-14T06:26:26;9.50;1.00
7784;DHT22;19359;51.402;6.778;2024-02-14T06:28:53;9.50;1.00
7784;DHT22;19359;51.402;6.778;2024-02-14T06:31:21;9.50;1.00
7784;DHT22;19359;51.402;6.778;2024-02-14T06:33:48;9.50;92.80
7784;DHT22;19359;51.402;6.778;2024-02-14T06:36:15;9.50;1.00
7784;DHT22;19359;51.402;6.778;2024-02-14T06:38:42;9.50;1.00
7784;DHT22;19359;51.402;6.778;2024-02-14T06:41:13;9.50;1.00
7784;DHT22;19359;51.402;6.778;2024-02-14T06:43:39;9.50;1.00
7784;DHT22;19359;51.402;6.778;2024-02-14T06:46:06;9.50;1.00
7784;DHT22;19359;51.402;6.778;2024-02-14T06:48:33;9.60;1.00
7784;DHT22;19359;51.402;6.778;2024-02-14T06:51:00;9.60;1.00
7784;DHT22;19359;51.402;6.778;2024-02-14T06:53:27;9.60;1.00
7784;DHT22;19359;51.402;6.778;2024-02-14T06:55:53;9.60;1.00
7784;DHT22;19359;51.402;6.778;2024-02-14T06:58:21;9.60;1.00
7784;DHT22;19359;51.402;6.778;2024-02-14T07:00:48;9.70;1.00
7784;DHT22;19359;51.402;6.778;2024-02-14T07:03:15;9.70;1.00
7784;DHT22;19359;51.402;6.778;2024-02-14T07:05:43;9.70;1.00
7784;DHT22;19359;51.402;6.778;2024-02-14T07:08:09;9.70;1.00
7784;DHT22;19359;51.402;6.778;2024-02-14T07:10:36;9.70;1.00
7784;DHT22;19359;51.402;6.778;2024-02-14T07:13:03;9.70;1.00
7784;DHT22;19359;51.402;6.778;2024-02-14T07:15:31;9.70;1.00
7784;DHT22;19359;51.402;6.778;2024-02-14T07:17:58;9.70;1.00
7784;DHT22;19359;51.402;6.778;2024-02-14T07:20:25;9.70;1.00
7784;DHT22;19359;51.402;6.778;2024-02-14T07:22:52;9.70;1.00
7784;DHT22;19359;51.402;6.778;2024-02-14T07:25:21;9.70;1.00
7784;DHT22;19359;51.402;6.778;2024-02-14T07:27:48;9.70;1.00
7784;DHT22;19359;51.402;6.778;2024-02-14T07:30:15;9.70;99.90
7784;DHT22;19359;51.402;6.778;2024-02-14T07:32:44;9.60;99.90
7784;DHT22;19359;51.402;6.778;2024-02-14T07:35:11;9.60;99.90
7784;DHT22;19359;51.402;6.778;2024-02-14T07:37:38;9.70;99.90
7784;DHT22;19359;51.402;6.778;2024-02-14T07:40:06;9.60;99.90
7784;DHT22;19359;51.402;6.778;2024-02-14T07:42:33;9.60;99.90
7784;DHT22;19359;51.402;6.778;2024-02-14T07:45:00;9.70;99.90
7784;DHT22;19359;51.402;6.778;2024-02-14T07:47:28;9.70;99.90
7784;DHT22;19359;51.402;6.778;2024-02-14T07:49:57;9.70;99.90
7784;DHT22;19359;51.402;6.778;2024-02-14T07:52:23;9.70;76.30
7784;DHT22;19359;51.402;6.778;2024-02-14T07:54:52;9.70;1.00
7784;DHT22;19359;51.402;6.778;2024-02-14T07:57:19;9.80;1.00
7784;DHT22;19359;51.402;6.778;2024-02-14T07:59:46;9.80;1.00
7784;DHT22;19359;51.402;6.778;2024-02-14T08:02:13;9.80;1.00
7784;DHT22;19359;51.402;6.778;2024-02-14T08:04:40;9.80;99.90
7784;DHT22;19359;51.402;6.778;2024-02-14T08:07:08;9.80;99.90
7784;DHT22;19359;51.402;6.778;2024-02-14T08:09:35;9.90;1.00
7784;DHT22;19359;51.402;6.778;2024-02-14T08:12:04;9.90;1.00
7784;DHT22;19359;51.402;6.778;2024-02-14T08:14:31;9.90;1.00
7784;DHT22;19359;51.402;6.778;2024-02-14T08:16:58;10.00;1.00
7784;DHT22;19359;51.402;6.778;2024-02-14T08:19:25;10.00;1.00
7784;DHT22;19359;51.402;6.778;2024-02-14T08:21:52;10.00;1.00
7784;DHT22;19359;51.402;6.778;2024-02-14T08:24:24;10.00;1.00
7784;DHT22;19359;51.402;6.778;2024-02-14T08:26:51;10.00;1.00
7784;DHT22;19359;51.402;6.778;2024-02-14T08:29:18;10.10;1.00
7784;DHT22;19359;51.402;6.778;2024-02-14T08:31:45;10.10;99.90
7784;DHT22;19359;51.402;6.778;2024-02-14T08:34:12;10.10;99.90
7784;DHT22;19359;51.402;6.778;2024-02-14T08:36:38;10.10;99.90
7784;DHT22;19359;51.402;6.778;2024-02-14T08:39:07;10.10;99.90
7784;DHT22;19359;51.402;6.778;2024-02-14T08:41:35;10.10;99.90
7784;DHT22;19359;51.402;6.778;2024-02-14T08:44:02;10.10;99.90
7784;DHT22;19359;51.402;6.778;2024-02-14T08:46:30;10.10;99.90
7784;DHT22;19359;51.402;6.778;2024-02-14T08:48:57;10.10;99.90
7784;DHT22;19359;51.402;6.778;2024-02-14T08:51:24;10.20;99.90
7784;DHT22;19359;51.402;6.778;2024-02-14T08:53:51;10.20;1.00
7784;DHT22;19359;51.402;6.778;2024-02-14T08:56:20;10.20;1.00
7784;DHT22;19359;51.402;6.778;2024-02-14T08:58:48;10.20;99.90
7784;DHT22;19359;51.402;6.778;2024-02-14T09:01:15;10.30;99.90
7784;DHT22;19359;51.402;6.778;2024-02-14T09:03:42;10.30;99.90
7784;DHT22;19359;51.402;6.778;2024-02-14T09:06:12;10.30;99.90
7784;DHT22;19359;51.402;6.778;2024-02-14T09:08:39;10.30;99.40
7784;DHT22;19359;51.402;6.778;2024-02-14T09:11:07;10.30;99.90
7784;DHT22;19359;51.402;6.778;2024-02-14T09:13:34;10.30;1.00
7784;DHT22;19359;51.402;6.778;2024-02-14T09:16:03;10.30;1.00
7784;DHT22;19359;51.402;6.778;2024-02-14T09:18:31;10.30;1.00
7784;DHT22;19359;51.402;6.778;2024-02-14T09:20:58;10.40;1.00
7784;DHT22;19359;51.402;6.778;2024-02-14T09:23:25;10.30;1.00
7784;DHT22;19359;51.402;6.778;2024-02-14T09:25:51;10.40;1.00
7784;DHT22;19359;51.402;6.778;2024-02-14T09:28:20;10.40;1.00
7784;DHT22;19359;51.402;6.778;2024-02-14T09:30:46;10.40;99.90
7784;DHT22;19359;51.402;6.778;2024-02-14T09:33:14;10.50;1.00
7784;DHT22;19359;51.402;6.778;2024-02-14T09:35:41;10.50;1.00
7784;DHT22;19359;51.402;6.778;2024-02-14T09:38:10;10.50;1.00
7784;DHT22;19359;51.402;6.778;2024-02-14T09:40:38;10.60;1.00
7784;DHT22;19359;51.402;6.778;2024-02-14T09:43:06;10.60;1.00
7784;DHT22;19359;51.402;6.778;2024-02-14T09:45:33;10.70;99.90
7784;DHT22;19359;51.402;6.778;2024-02-14T09:48:00;10.80;82.90
7784;DHT22;19359;51.402;6.778;2024-02-14T09:50:29;10.90;1.00
7784;DHT22;19359;51.402;6.778;2024-02-14T09:52:57;10.90;99.90
7784;DHT22;19359;51.402;6.778;2024-02-14T09:55:25;11.00;1.00
7784;DHT22;19359;51.402;6.778;2024-02-14T09:57:52;11.10;1.00
7784;DHT22;19359;51.402;6.778;2024-02-14T10:00:21;11.20;1.00
7784;DHT22;19359;51.402;6.778;2024-02-14T10:02:48;11.20;1.00
7784;DHT22;19359;51.402;6.778;2024-02-14T10:05:15;11.20;1.00
7784;DHT22;19359;51.402;6.778;2024-02-14T10:07:44;11.30;1.00
7784;DHT22;19359;51.402;6.778;2024-02-14T10:10:12;11.30;1.00
7784;DHT22;19359;51.402;6.778;2024-02-14T10:12:39;11.30;1.00
7784;DHT22;19359;51.402;6.778;2024-02-14T10:15:07;11.30;1.00
7784;DHT22;19359;51.402;6.778;2024-02-14T10:17:34;11.30;1.00
7784;DHT22;19359;51.402;6.778;2024-02-14T10:20:03;11.30;1.00
7784;DHT22;19359;51.402;6.778;2024-02-14T10:22:34;11.30;1.00
7784;DHT22;19359;51.402;6.778;2024-02-14T10:25:02;11.30;1.00
7784;DHT22;19359;51.402;6.778;2024-02-14T10:27:30;11.30;1.00
7784;DHT22;19359;51.402;6.778;2024-02-14T10:29:58;11.30;1.00
7784;DHT22;19359;51.402;6.778;2024-02-14T10:32:25;11.40;1.00
7784;DHT22;19359;51.402;6.778;2024-02-14T10:34:52;11.40;1.00
7784;DHT22;19359;51.402;6.778;2024-02-14T10:37:21;11.40;1.00
7784;DHT22;19359;51.402;6.778;2024-02-14T10:39:49;11.40;1.00
7784;DHT22;19359;51.402;6.778;2024-02-14T10:42:19;11.40;1.00
7784;DHT22;19359;51.402;6.778;2024-02-14T10:44:46;11.50;1.00
7784;DHT22;19359;51.402;6.778;2024-02-14T10:47:18;11.60;1.00
7784;DHT22;19359;51.402;6.778;2024-02-14T10:49:46;11.60;1.00
7784;DHT22;19359;51.402;6.778;2024-02-14T10:52:15;11.70;1.00
7784;DHT22;19359;51.402;6.778;2024-02-14T10:54:43;11.80;1.00
7784;DHT22;19359;51.402;6.778;2024-02-14T10:57:16;11.90;1.00
7784;DHT22;19359;51.402;6.778;2024-02-14T10:59:46;12.00;1.00
7784;DHT22;19359;51.402;6.778;2024-02-14T11:02:14;12.00;1.00
7784;DHT22;19359;51.402;6.778;2024-02-14T11:04:41;12.00;13.60
7784;DHT22;19359;51.402;6.778;2024-02-14T11:07:10;12.00;99.90
7784;DHT22;19359;51.402;6.778;2024-02-14T11:09:38;11.90;99.90
7784;DHT22;19359;51.402;6.778;2024-02-14T11:12:07;11.90;99.90
7784;DHT22;19359;51.402;6.778;2024-02-14T11:14:35;12.00;99.90
7784;DHT22;19359;51.402;6.778;2024-02-14T11:17:03;12.00;99.90
7784;DHT22;19359;51.402;6.778;2024-02-14T11:19:35;12.00;99.90
7784;DHT22;19359;51.402;6.778;2024-02-14T11:22:10;12.00;99.90
7784;DHT22;19359;51.402;6.778;2024-02-14T11:24:37;12.00;99.90
7784;DHT22;19359;51.402;6.778;2024-02-14T11:27:09;12.10;99.90
7784;DHT22;19359;51.402;6.778;2024-02-14T11:29:38;12.10;99.90
7784;DHT22;19359;51.402;6.778;2024-02-14T11:32:07;12.10;99.90
7784;DHT22;19359;51.402;6.778;2024-02-14T11:34:35;12.10;99.90
7784;DHT22;19359;51.402;6.778;2024-02-14T11:37:02;12.20;99.90
7784;DHT22;19359;51.402;6.778;2024-02-14T11:39:29;12.20;99.90
7784;DHT22;19359;51.402;6.778;2024-02-14T11:41:57;12.20;99.90
7784;DHT22;19359;51.402;6.778;2024-02-14T11:44:25;12.20;42.10
7784;DHT22;19359;51.402;6.778;2024-02-14T11:46:52;12.30;83.10
7784;DHT22;19359;51.402;6.778;2024-02-14T11:49:20;12.30;99.90
7784;DHT22;19359;51.402;6.778;2024-02-14T11:51:48;12.30;67.10
7784;DHT22;19359;51.402;6.778;2024-02-14T11:54:15;12.40;1.00
7784;DHT22;19359;51.402;6.778;2024-02-14T11:56:43;12.40;8.60
7784;DHT22;19359;51.402;6.778;2024-02-14T11:59:10;12.50;23.10
7784;DHT22;19359;51.402;6.778;2024-02-14T12:01:37;12.60;1.00
7784;DHT22;19359;51.402;6.778;2024-02-14T12:04:05;12.50;1.00
7784;DHT22;19359;51.402;6.778;2024-02-14T12:06:36;12.50;1.00
7784;DHT22;19359;51.402;6.778;2024-02-14T12:09:03;12.50;1.00
7784;DHT22;19359;51.402;6.778;2024-02-14T12:11:31;12.50;1.00
7784;DHT22;19359;51.402;6.778;2024-02-14T12:14:01;12.50;99.90
7784;DHT22;19359;51.402;6.778;2024-02-14T12:16:28;12.40;99.90
7784;DHT22;19359;51.402;6.778;2024-02-14T12:19:04;9.70;1.00
7784;DHT22;19359;51.402;6.778;2024-02-14T12:21:35;12.20;70.70
7784;DHT22;19359;51.402;6.778;2024-02-14T12:24:03;12.10;1.00
7784;DHT22;19359;51.402;6.778;2024-02-14T12:26:30;12.00;93.30
7784;DHT22;19359;51.402;6.778;2024-02-14T12:28:57;12.00;1.00
7784;DHT22;19359;51.402;6.778;2024-02-14T12:31:24;12.00;1.00
7784;DHT22;19359;51.402;6.778;2024-02-14T12:33:51;12.10;1.00
7784;DHT22;19359;51.402;6.778;2024-02-14T12:36:20;12.10;1.00
7784;DHT22;19359;51.402;6.778;2024-02-14T12:38:49;12.10;97.30
7784;DHT22;19359;51.402;6.778;2024-02-14T12:41:17;12.10;76.40
7784;DHT22;19359;51.402;6.778;2024-02-14T12:43:44;12.10;99.90
7784;DHT22;19359;51.402;6.778;2024-02-14T12:46:10;12.00;1.00
7784;DHT22;19359;51.402;6.778;2024-02-14T12:48:37;12.00;1.00
7784;DHT22;19359;51.402;6.778;2024-02-14T12:51:04;11.90;99.90
7784;DHT22;19359;51.402;6.778;2024-02-14T12:53:31;11.90;99.90
7784;DHT22;19359;51.402;6.778;2024-02-14T12:55:59;11.90;1.00
7784;DHT22;19359;51.402;6.778;2024-02-14T12:58:26;11.90;99.90
7784;DHT22;19359;51.402;6.778;2024-02-14T13:00:53;11.90;99.90
7784;DHT22;19359;51.402;6.778;2024-02-14T13:03:20;11.90;99.90
7784;DHT22;19359;51.402;6.778;2024-02-14T13:05:47;12.00;99.90
7784;DHT22;19359;51.402;6.778;2024-02-14T13:08:13;12.10;1.00
7784;DHT22;19359;51.402;6.778;2024-02-14T13:10:43;12.10;1.00
7784;DHT22;19359;51.402;6.778;2024-02-14T13:13:11;12.10;1.00
7784;DHT22;19359;51.402;6.778;2024-02-14T13:15:38;12.10;1.00
7784;DHT22;19359;51.402;6.778;2024-02-14T13:18:06;12.10;1.00
7784;DHT22;19359;51.402;6.778;2024-02-14T13:20:33;12.10;1.00
7784;DHT22;19359;51.402;6.778;2024-02-14T13:22:59;12.10;99.90
7784;DHT22;19359;51.402;6.778;2024-02-14T13:25:27;12.10;99.90
7784;DHT22;19359;51.402;6.778;2024-02-14T13:27:54;12.10;99.90
7784;DHT22;19359;51.402;6.778;2024-02-14T13:30:22;12.10;99.90
7784;DHT22;19359;51.402;6.778;2024-02-14T13:32:49;12.10;99.90
7784;DHT22;19359;51.402;6.778;2024-02-14T13:35:16;12.20;99.90
7784;DHT22;19359;51.402;6.778;2024-02-14T13:37:43;12.20;99.90
7784;DHT22;19359;51.402;6.778;2024-02-14T13:40:10;12.30;65.10
7784;DHT22;19359;51.402;6.778;2024-02-14T13:42:37;12.30;39.00
7784;DHT22;19359;51.402;6.778;2024-02-14T13:45:05;12.30;1.00
7784;DHT22;19359;51.402;6.778;2024-02-14T13:47:36;12.30;1.00
7784;DHT22;19359;51.402;6.778;2024-02-14T13:50:04;12.30;1.00
7784;DHT22;19359;51.402;6.778;2024-02-14T13:52:31;12.30;1.00
7784;DHT22;19359;51.402;6.778;2024-02-14T13:54:58;12.30;1.00
7784;DHT22;19359;51.402;6.778;2024-02-14T13:57:27;12.20;59.90
7784;DHT22;19359;51.402;6.778;2024-02-14T13:59:54;12.20;1.00
7784;DHT22;19359;51.402;6.778;2024-02-14T14:02:21;12.20;1.00
7784;DHT22;19359;51.402;6.778;2024-02-14T14:04:50;12.20;1.00
7784;DHT22;19359;51.402;6.778;2024-02-14T14:07:18;12.10;99.90
7784;DHT22;19359;51.402;6.778;2024-02-14T14:09:45;12.10;99.90
7784;DHT22;19359;51.402;6.778;2024-02-14T14:12:12;12.10;99.90
7784;DHT22;19359;51.402;6.778;2024-02-14T14:14:39;12.10;1.00
7784;DHT22;19359;51.402;6.778;2024-02-14T14:17:06;12.00;1.00
7784;DHT22;19359;51.402;6.778;2024-02-14T14:19:32;12.00;1.00
7784;DHT22;19359;51.402;6.778;2024-02-14T14:22:00;12.00;1.00
7784;DHT22;19359;51.402;6.778;2024-02-14T14:24:27;12.00;1.00
7784;DHT22;19359;51.402;6.778;2024-02-14T14:26:56;12.00;99.90
7784;DHT22;19359;51.402;6.778;2024-02-14T14:29:23;12.00;1.00
7784;DHT22;19359;51.402;6.778;2024-02-14T14:31:50;11.90;1.00
7784;DHT22;19359;51.402;6.778;2024-02-14T14:34:16;11.80;1.00
7784;DHT22;19359;51.402;6.778;2024-02-14T14:36:45;11.80;99.90
7784;DHT22;19359;51.402;6.778;2024-02-14T14:39:13;11.80;1.00
7784;DHT22;19359;51.402;6.778;2024-02-14T14:41:40;11.80;1.00
7784;DHT22;19359;51.402;6.778;2024-02-14T14:44:07;11.70;1.00
7784;DHT22;19359;51.402;6.778;2024-02-14T14:46:34;11.70;1.00
7784;DHT22;19359;51.402;6.778;2024-02-14T14:49:01;11.70;1.00
7784;DHT22;19359;51.402;6.778;2024-02-14T14:51:28;11.60;52.60
7784;DHT22;19359;51.402;6.778;2024-02-14T14:53:55;11.70;99.90
7784;DHT22;19359;51.402;6.778;2024-02-14T14:56:23;11.60;99.90
7784;DHT22;19359;51.402;6.778;2024-02-14T14:58:52;11.60;99.90
7784;DHT22;19359;51.402;6.778;2024-02-14T15:01:18;11.60;99.90
7784;DHT22;19359;51.402;6.778;2024-02-14T15:03:45;11.60;99.90
7784;DHT22;19359;51.402;6.778;2024-02-14T15:06:12;11.60;99.90
7784;DHT22;19359;51.402;6.778;2024-02-14T15:08:40;11.60;99.90
7784;DHT22;19359;51.402;6.778;2024-02-14T15:11:09;11.60;99.90
7784;DHT22;19359;51.402;6.778;2024-02-14T15:13:37;11.60;99.90
7784;DHT22;19359;51.402;6.778;2024-02-14T15:16:04;11.60;99.90
7784;DHT22;19359;51.402;6.778;2024-02-14T15:18:33;11.60;99.90
7784;DHT22;19359;51.402;6.778;2024-02-14T15:21:00;11.60;99.90
7784;DHT22;19359;51.402;6.778;2024-02-14T15:23:27;11.60;99.90
7784;DHT22;19359;51.402;6.778;2024-02-14T15:25:54;11.60;99.90
7784;DHT22;19359;51.402;6.778;2024-02-14T15:28:28;11.60;99.90
7784;DHT22;19359;51.402;6.778;2024-02-14T15:30:57;11.60;99.90
7784;DHT22;19359;51.402;6.778;2024-02-14T15:33:41;11.50;99.90
7784;DHT22;19359;51.402;6.778;2024-02-14T15:36:10;11.50;99.90
7784;DHT22;19359;51.402;6.778;2024-02-14T15:38:40;11.60;99.90
7784;DHT22;19359;51.402;6.778;2024-02-14T15:41:07;11.60;99.90
7784;DHT22;19359;51.402;6.778;2024-02-14T15:43:35;11.60;99.90
7784;DHT22;19359;51.402;6.778;2024-02-14T15:46:03;11.60;99.90
7784;DHT22;19359;51.402;6.778;2024-02-14T15:48:30;11.60;99.90
7784;DHT22;19359;51.402;6.778;2024-02-14T15:50:58;11.60;99.90
7784;DHT22;19359;51.402;6.778;2024-02-14T15:53:25;11.60;99.90
7784;DHT22;19359;51.402;6.778;2024-02-14T15:55:52;11.50;99.90
7784;DHT22;19359;51.402;6.778;2024-02-14T15:58:19;11.60;99.90
7784;DHT22;19359;51.402;6.778;2024-02-14T16:00:45;11.60;99.90
7784;DHT22;19359;51.402;6.778;2024-02-14T16:03:14;11.60;99.90